Terminal Aerodrome Forecast
Issued by NWS Northern Indiana

Home | Current Version | Previous Version | Text Only | Print | Product List | Glossary On
Versions: 1 2 3 4 5 6 7 8 9 10 11 12
000
FTUS43 KIWX 192300
TAFFWA
TAF
KFWA 192338Z 2000/2024 VRB03KT P6SM SCT040
     FM200700 00000KT 5SM BR SCT010
      TEMPO 2008/2012 2SM BR
     FM201300 07003KT P6SM SCT025=

USA.gov is the U.S. government's official web portal to all federal, state and local government web resources and services.